WetterOnline ( http://www.wetteronline.de )

Wetter aktuell Düsseldorf

Aktuelles Wetter: Essen (161m)

6-stündlich | Neueste Meldungen
Ortszeit Temperatur Wetter
So, 27.05. 20:00 19.6° C leichter Regen
So, 27.05. 14:00 26.6° C wolkig
So, 27.05. 8:00 18.9° C bedeckt
So, 27.05. 2:00 20.2° C bedeckt
Sa, 26.05. 20:00 26.0° C wolkig
Sa, 26.05. 14:00 26.5° C leicht bewölkt
Sa, 26.05. 8:00 18.7° C wolkenlos
Sa, 26.05. 2:00 18.2° C leicht bewölkt
Ortszeit Temperatur Wetter
So, 27.05. 21:10 20.2° C wolkig
So, 27.05. 21:00 20.4° C bedeckt
So, 27.05. 20:50 20.4° C bedeckt
So, 27.05. 20:40 20.2° C bedeckt
So, 27.05. 20:30 19.7° C bedeckt
So, 27.05. 20:20 19.7° C bedeckt
So, 27.05. 20:00 19.6° C leichter Regen
So, 27.05. 19:30 19.4° C leichter Regen
So, 27.05. 19:00 19.4° C bewölkt
So, 27.05. 18:30 20.2° C bewölkt
So, 27.05. 18:00 21.4° C leichter Regen
Ortszeit Relative Feuchte Sichtweite
So, 27.05. 20:00 73% 35 km
So, 27.05. 14:00 43% 35 km
So, 27.05. 8:00 68% 21 km
So, 27.05. 2:00 61% 29 km
Sa, 26.05. 20:00 43% 35 km
Sa, 26.05. 14:00 44% 21 km
Sa, 26.05. 8:00 79% 20 km
Sa, 26.05. 2:00 83% 26 km
Ortszeit Relative Feuchte Sichtweite
So, 27.05. 21:10 66% -
So, 27.05. 21:00 66% 50 km
So, 27.05. 20:50 66% -
So, 27.05. 20:40 66% -
So, 27.05. 20:30 72% 40 km
So, 27.05. 20:20 72% -
So, 27.05. 20:00 73% 35 km
So, 27.05. 19:30 76% 30 km
So, 27.05. 19:00 77% 30 km
So, 27.05. 18:30 71% 29 km
So, 27.05. 18:00 62% 24 km
Ortszeit Niederschlagsmenge Niederschlagsart
So, 27.05. 20:00 0.1 l/m2 in 12 Std. Regen
So, 27.05. 14:00 0.0 l/m2 in 6 Std. -
So, 27.05. 8:00 0.0 l/m2 in 12 Std. -
So, 27.05. 2:00 0.0 l/m2 in 6 Std. -
Sa, 26.05. 20:00 0.0 l/m2 in 12 Std. -
Sa, 26.05. 14:00 0.0 l/m2 in 6 Std. -
Sa, 26.05. 8:00 0.0 l/m2 in 12 Std. -
Sa, 26.05. 2:00 0.0 l/m2 in 6 Std. -
Ortszeit Niederschlagsmenge Niederschlagsart
So, 27.05. 21:10 keine Meldung -
So, 27.05. 21:00 0.1 l/m2 in 1 Std. Regen
So, 27.05. 20:50 keine Meldung -
So, 27.05. 20:40 keine Meldung -
So, 27.05. 20:30 0.1 l/m2 in 1 Std. Schneeregen
So, 27.05. 20:20 keine Meldung -
So, 27.05. 20:00 0.1 l/m2 in 1 Std. Regen
So, 27.05. 19:30 0.1 l/m2 in 1 Std. -
So, 27.05. 19:00 0.1 l/m2 in 1 Std. Regen
So, 27.05. 18:30 0.1 l/m2 in 1 Std. Schneeregen
So, 27.05. 18:00 0.1 l/m2 in 1 Std. Regen
Ortszeit Stärke Spitze Richtung
km/h Bft. km/h Grad Sektor
So, 27.05. 20:00 11 2 36 100° O
So, 27.05. 14:00 9 2 22 90° O
So, 27.05. 8:00 9 2 19 90° O
So, 27.05. 2:00 9 2 20 80° O
Sa, 26.05. 20:00 9 2 24 80° O
Sa, 26.05. 14:00 15 3 30 90° O
Sa, 26.05. 8:00 11 2 18 100° O
Sa, 26.05. 2:00 7 2 17 100° O
Ortszeit Stärke Spitze Richtung
km/h Bft. km/h Grad Sektor
So, 27.05. 21:10 7 2 - 90° O
So, 27.05. 21:00 7 2 18 90° O
So, 27.05. 20:50 7 2 - 90° O
So, 27.05. 20:40 11 2 - 100° O
So, 27.05. 20:30 11 2 18 110° O
So, 27.05. 20:20 11 2 - 110° O
So, 27.05. 20:00 11 2 14 100° O
So, 27.05. 19:30 7 2 15 10° N
So, 27.05. 19:00 11 2 29 360° N
So, 27.05. 18:30 17 3 28 360° N
So, 27.05. 18:00 11 2 24 40° NO
Ortszeit Untergrenze Bedeckung Gattung
total tief tief mittel hoch
So, 27.05. 20:00 2700 m 7/8 4/8 - - -
So, 27.05. 14:00 1800 m 8/8 1/8 - - -
So, 27.05. 8:00 3300 m 8/8 8/8 - - -
So, 27.05. 2:00 3900 m 8/8 8/8 - - -
Sa, 26.05. 20:00 3000 m 8/8 2/8 - - -
Sa, 26.05. 14:00 1800 m 2/8 - - - -
Sa, 26.05. 8:00 - 0/8 0/8 - - -
Sa, 26.05. 2:00 2700 m 5/8 3/8 - - -
Ortszeit Bedeckungsgrad in Achtel und Wolkenuntergrenze
So, 27.05. 21:10 3(2400m) 8(3600m)
So, 27.05. 21:00 8(3900m) 8(4800m) 8(9000m)
So, 27.05. 20:50 8(3900m) 8(4800m) 8(9000m)
So, 27.05. 20:40 8(3900m) 8(4500m) 8(6000m)
So, 27.05. 20:30 8(3900m) 8(5700m) 8(9000m)
So, 27.05. 20:20 8(3900m) 8(5700m) 8(9000m)
So, 27.05. 20:00 4(2700m) 7(3600m) 7(4200m)
So, 27.05. 19:30 8(3000m) 8(3600m) 8(4200m)
So, 27.05. 19:00 2(1500m) 4(2100m) 8(3300m)
So, 27.05. 18:30 5(1500m) 6(1800m) 7(3900m)
So, 27.05. 18:00 2(1500m) 7(3000m) 8(3600m)
Ortszeit Luftdruck NN (hPa) Tendenz (hPa in 3 Std.)
So, 27.05. 20:00 1016 - 1,4
So, 27.05. 14:00 1017 - 0,8
So, 27.05. 8:00 1019 + 0,1
So, 27.05. 2:00 1019 - 0,5
Sa, 26.05. 20:00 1019 - 0,1
Sa, 26.05. 14:00 1020 - 0,2
Sa, 26.05. 8:00 1020 + 1,0
Sa, 26.05. 2:00 1019 + 0,5
Ortszeit Luftdruck NN (hPa) Tendenz (hPa in 3 Std.)
So, 27.05. 21:10 1017 keine Meldung
So, 27.05. 21:00 1017 - 0,4
So, 27.05. 20:50 1017 keine Meldung
So, 27.05. 20:40 1017 keine Meldung
So, 27.05. 20:30 1017 - 1,0
So, 27.05. 20:20 1017 keine Meldung
So, 27.05. 20:00 1016 - 1,4
So, 27.05. 19:30 1018 + 0,2
So, 27.05. 19:00 1018 + 0,2
So, 27.05. 18:30 1018 + 0,7
So, 27.05. 18:00 1018 + 0,1
Ortszeit Schneehöhe (cm)
So, 27.05. 20:00 -
So, 27.05. 14:00 -
So, 27.05. 8:00 -
So, 27.05. 2:00 -
Sa, 26.05. 20:00 -
Sa, 26.05. 14:00 -
Sa, 26.05. 8:00 -
Sa, 26.05. 2:00 -
Ortszeit Schneehöhe (cm)
So, 27.05. 21:10 -
So, 27.05. 21:00 -
So, 27.05. 20:50 -
So, 27.05. 20:40 -
So, 27.05. 20:30 -
So, 27.05. 20:20 -
So, 27.05. 20:00 -
So, 27.05. 19:30 -
So, 27.05. 19:00 -
So, 27.05. 18:30 -
So, 27.05. 18:00 -
Link zu dieser Seite / Seite empfehlen

Das Wetter in ...